createdAt,value
2019-04-19T00:02:38.132Z,16.30
2019-04-19T00:08:32.485Z,18.30
2019-04-19T00:11:15.540Z,18.60
2019-04-19T00:13:42.994Z,18.40
2019-04-19T00:16:19.519Z,15.90
2019-04-19T00:19:33.067Z,16.67
2019-04-19T00:22:24.934Z,15.17
2019-04-19T00:24:27.313Z,18.80
2019-04-19T00:26:57.044Z,22.10
2019-04-19T00:29:37.489Z,14.57
2019-04-19T00:34:44.340Z,16.73
2019-04-19T00:37:33.817Z,22.30
2019-04-19T00:41:00.190Z,16.10
2019-04-19T00:44:02.427Z,16.13
2019-04-19T00:49:16.222Z,17.90
2019-04-19T00:52:12.419Z,12.77
2019-04-19T00:55:00.184Z,13.67
2019-04-19T00:57:36.085Z,18.50
2019-04-19T01:00:01.956Z,15.30
2019-04-19T01:02:43.020Z,19.93
2019-04-19T01:05:18.148Z,15.27
2019-04-19T01:07:51.575Z,19.13
2019-04-19T01:10:40.298Z,18.30
2019-04-19T01:13:13.896Z,15.77
2019-04-19T01:15:53.067Z,16.90
2019-04-19T01:18:28.832Z,16.37
2019-04-19T01:20:52.788Z,13.20
2019-04-19T01:23:22.901Z,15.20
2019-04-19T01:26:15.117Z,15.40
2019-04-19T01:28:58.800Z,13.53
2019-04-19T01:31:30.594Z,16.03
2019-04-19T01:34:14.713Z,15.53
2019-04-19T01:36:48.436Z,15.23
2019-04-19T01:39:37.071Z,15.50
2019-04-19T01:42:18.155Z,16.90
2019-04-19T01:50:50.935Z,15.77
2019-04-19T01:53:43.475Z,16.57
2019-04-19T01:56:08.482Z,16.70
2019-04-19T01:58:44.698Z,19.73
2019-04-19T02:01:19.218Z,17.57
2019-04-19T02:03:52.423Z,17.97
2019-04-19T02:06:33.794Z,13.63
2019-04-19T02:12:22.231Z,17.60
2019-04-19T02:14:50.619Z,19.93
2019-04-19T02:17:23.159Z,16.27
2019-04-19T02:20:04.102Z,17.13
2019-04-19T02:22:39.151Z,15.07
2019-04-19T02:25:19.901Z,15.40
2019-04-19T02:27:51.444Z,16.10
2019-04-19T02:30:33.947Z,23.03
2019-04-19T02:33:29.971Z,15.03
2019-04-19T02:36:12.891Z,13.03
2019-04-19T02:38:46.679Z,18.20
2019-04-19T02:44:17.393Z,17.13
2019-04-19T02:47:01.149Z,15.73
2019-04-19T02:49:37.116Z,22.80
2019-04-19T02:52:29.062Z,15.77
2019-04-19T02:55:10.254Z,14.20
2019-04-19T02:58:12.593Z,17.10
2019-04-19T03:01:32.403Z,18.13
2019-04-19T03:03:39.485Z,17.13
2019-04-19T03:06:13.327Z,22.87
2019-04-19T03:08:35.490Z,18.33
2019-04-19T03:11:33.541Z,13.63
2019-04-19T03:14:05.280Z,15.23
2019-04-19T03:16:46.847Z,16.80
2019-04-19T03:19:19.082Z,17.83
2019-04-19T03:22:23.267Z,13.87
2019-04-19T03:25:00.829Z,19.83
2019-04-19T03:27:28.472Z,24.83
2019-04-19T03:30:17.210Z,16.60
2019-04-19T03:35:27.094Z,16.83
2019-04-19T03:38:08.854Z,17.67
2019-04-19T03:40:39.138Z,16.47
2019-04-19T03:43:54.386Z,21.80
2019-04-19T03:46:31.761Z,16.63
2019-04-19T03:49:08.611Z,13.83
2019-04-19T03:51:51.882Z,17.70
2019-04-19T03:54:17.514Z,20.90
2019-04-19T03:56:59.231Z,23.50
2019-04-19T04:02:02.971Z,20.60
2019-04-19T04:04:59.477Z,22.80
2019-04-19T04:07:31.167Z,19.73
2019-04-19T04:13:59.923Z,18.53
2019-04-19T04:16:40.719Z,19.20
2019-04-19T04:19:12.487Z,21.27
2019-04-19T04:21:51.031Z,23.53
2019-04-19T04:24:32.717Z,23.60
2019-04-19T04:27:09.666Z,16.13
2019-04-19T04:29:44.274Z,16.47
2019-04-19T04:32:46.714Z,18.23
2019-04-19T04:35:25.653Z,19.40
2019-04-19T04:38:02.784Z,16.23
2019-04-19T04:40:27.731Z,22.83
2019-04-19T04:46:38.859Z,17.10
2019-04-19T04:52:21.236Z,20.00
2019-04-19T04:55:07.232Z,27.13
2019-04-19T04:57:44.952Z,20.00
2019-04-19T05:00:34.938Z,17.27
2019-04-19T05:03:16.750Z,20.50
2019-04-19T05:06:02.803Z,22.63
2019-04-19T05:08:35.157Z,22.30
2019-04-19T05:11:15.001Z,27.20
2019-04-19T05:13:54.446Z,22.33
2019-04-19T05:16:46.808Z,22.40
2019-04-19T05:19:05.266Z,20.37
2019-04-19T05:21:42.644Z,24.13
2019-04-19T05:24:21.108Z,21.67
2019-04-19T05:27:03.784Z,25.60
2019-04-19T05:29:29.738Z,22.20
2019-04-19T05:32:11.623Z,21.63
2019-04-19T05:34:58.276Z,24.53
2019-04-19T05:37:52.665Z,20.33
2019-04-19T05:40:43.363Z,20.43
2019-04-19T05:43:57.273Z,24.23
2019-04-19T05:46:21.203Z,24.30
2019-04-19T05:48:48.177Z,20.23
2019-04-19T05:51:42.381Z,24.30
2019-04-19T05:53:55.089Z,23.27
2019-04-19T05:56:30.955Z,22.77
2019-04-19T05:59:11.015Z,22.63
2019-04-19T06:02:05.435Z,21.30
2019-04-19T06:04:48.247Z,21.90
2019-04-19T06:07:24.487Z,18.20
2019-04-19T06:09:41.001Z,22.90
2019-04-19T06:12:21.315Z,16.50
2019-04-19T06:18:13.291Z,18.90
2019-04-19T06:24:10.363Z,18.47
2019-04-19T06:29:39.444Z,18.83
2019-04-19T06:32:12.603Z,21.27
2019-04-19T06:34:47.578Z,16.73
2019-04-19T06:37:10.160Z,18.97
2019-04-19T06:39:43.804Z,18.03
2019-04-19T06:42:15.192Z,17.93
2019-04-19T06:48:55.246Z,15.97
2019-04-19T06:51:34.748Z,21.23
2019-04-19T06:54:06.006Z,16.43
2019-04-19T06:56:41.658Z,23.83
2019-04-19T07:02:15.973Z,16.43
2019-04-19T07:04:54.289Z,23.20
2019-04-19T07:08:27.450Z,21.43
2019-04-19T07:10:50.257Z,19.07
2019-04-19T07:13:21.531Z,20.13
2019-04-19T07:16:15.468Z,18.10
2019-04-19T07:18:51.094Z,19.10
2019-04-19T07:21:29.074Z,20.67
2019-04-19T07:24:28.204Z,21.77
2019-04-19T07:26:54.715Z,26.07
2019-04-19T07:29:12.867Z,18.53
2019-04-19T07:31:43.047Z,20.47
2019-04-19T07:35:05.763Z,18.33
2019-04-19T07:37:58.837Z,17.43
2019-04-19T07:40:45.849Z,20.50
2019-04-19T07:43:10.579Z,21.10
2019-04-19T07:51:12.917Z,19.10
2019-04-19T07:53:57.227Z,17.70
2019-04-19T07:57:00.540Z,17.23
2019-04-19T07:59:49.870Z,20.87
2019-04-19T08:03:01.567Z,18.00
2019-04-19T08:05:46.566Z,19.80
2019-04-19T08:15:59.676Z,14.30
2019-04-19T08:29:40.793Z,16.33
2019-04-19T08:32:13.341Z,15.67
2019-04-19T08:34:43.191Z,15.57
2019-04-19T08:37:39.860Z,16.90
2019-04-19T08:41:08.273Z,18.10
2019-04-19T08:43:47.379Z,20.80
2019-04-19T08:46:25.940Z,15.80
2019-04-19T08:49:22.778Z,17.70
2019-04-19T08:52:28.725Z,17.90
2019-04-19T08:55:19.481Z,18.37
2019-04-19T08:57:37.702Z,17.73
2019-04-19T09:03:58.608Z,16.70
2019-04-19T09:07:15.914Z,17.80
2019-04-19T09:09:00.857Z,14.50
2019-04-19T09:11:52.367Z,14.67
2019-04-19T09:14:27.622Z,17.23
2019-04-19T09:17:02.557Z,17.20
2019-04-19T09:19:58.036Z,20.00
2019-04-19T09:22:09.218Z,15.13
2019-04-19T09:24:41.387Z,17.43
2019-04-19T09:28:11.385Z,21.10
2019-04-19T09:33:09.799Z,16.10
2019-04-19T09:36:00.663Z,19.70
2019-04-19T09:39:19.067Z,17.37
2019-04-19T09:41:50.082Z,14.43
2019-04-19T09:44:30.282Z,15.83
2019-04-19T09:46:59.653Z,17.20
2019-04-19T09:49:45.203Z,17.50
2019-04-19T09:52:44.371Z,15.23
2019-04-19T09:55:21.546Z,20.23
2019-04-19T09:57:52.870Z,15.40
2019-04-19T10:03:40.108Z,15.47
2019-04-19T10:06:09.169Z,16.40
2019-04-19T10:08:38.446Z,16.13
2019-04-19T10:11:10.220Z,21.03
2019-04-19T10:13:44.092Z,17.97
2019-04-19T10:16:32.682Z,17.20
2019-04-19T10:19:06.197Z,16.87
2019-04-19T10:24:51.296Z,18.63
2019-04-19T10:30:38.883Z,18.17
2019-04-19T10:36:18.186Z,21.47
2019-04-19T10:38:59.299Z,17.90
2019-04-19T10:41:34.374Z,13.97
2019-04-19T10:44:18.373Z,18.07
2019-04-19T10:46:47.399Z,16.80
2019-04-19T10:49:44.248Z,17.63
2019-04-19T10:52:33.142Z,14.97
2019-04-19T10:55:08.716Z,13.40
2019-04-19T10:57:39.062Z,19.80
2019-04-19T11:00:19.590Z,16.23
2019-04-19T11:02:56.860Z,19.27
2019-04-19T11:08:12.716Z,13.77
2019-04-19T11:11:03.454Z,18.90
2019-04-19T11:13:52.395Z,15.00
2019-04-19T11:16:21.783Z,14.60
2019-04-19T11:18:51.119Z,20.27
2019-04-19T11:21:20.778Z,15.47
2019-04-19T11:23:50.110Z,19.23
2019-04-19T11:26:19.467Z,16.43
2019-04-19T11:28:49.212Z,15.70
2019-04-19T11:37:20.791Z,12.97
2019-04-19T11:39:50.935Z,12.87
2019-04-19T11:42:27.515Z,14.07
2019-04-19T11:45:03.759Z,13.17
2019-04-19T11:47:40.757Z,14.20
2019-04-19T11:50:21.841Z,17.07
2019-04-19T11:53:10.649Z,11.80
2019-04-19T11:56:00.332Z,15.03
2019-04-19T12:03:56.312Z,14.47
2019-04-19T12:06:58.652Z,17.90
2019-04-19T12:09:28.021Z,14.00
2019-04-19T12:11:58.206Z,12.87
2019-04-19T12:14:34.442Z,13.63
2019-04-19T12:17:11.093Z,13.40
2019-04-19T12:19:53.801Z,14.63
2019-04-19T12:22:23.372Z,12.50
2019-04-19T12:24:55.118Z,20.73
2019-04-19T12:27:29.726Z,12.03
2019-04-19T12:33:27.007Z,16.60
2019-04-19T12:36:03.248Z,13.57
2019-04-19T12:38:39.812Z,20.40
2019-04-19T12:41:16.262Z,12.93
2019-04-19T12:43:52.248Z,12.60
2019-04-19T12:46:21.745Z,14.30
2019-04-19T12:48:58.527Z,16.60
2019-04-19T12:51:28.079Z,12.03
2019-04-19T12:53:58.229Z,11.37
2019-04-19T12:56:33.996Z,10.10
2019-04-19T12:59:11.614Z,16.63
2019-04-19T13:02:06.265Z,10.23
2019-04-19T13:07:31.257Z,13.80
2019-04-19T13:10:00.569Z,12.30
2019-04-19T13:12:30.688Z,17.07
2019-04-19T13:15:32.233Z,14.10
2019-04-19T13:18:07.910Z,10.03
2019-04-19T13:20:38.860Z,11.90
2019-04-19T13:23:28.371Z,9.40
2019-04-19T13:26:23.257Z,8.23
2019-04-19T13:28:53.443Z,10.23
2019-04-19T13:31:40.938Z,9.90
2019-04-19T13:34:11.478Z,12.40
2019-04-19T13:37:07.257Z,9.47
2019-04-19T13:40:02.065Z,9.83
2019-04-19T13:45:31.340Z,13.43
2019-04-19T13:48:07.374Z,10.10
2019-04-19T13:50:39.488Z,9.27
2019-04-19T13:53:26.854Z,10.13
2019-04-19T13:55:56.902Z,8.80
2019-04-19T13:58:47.525Z,8.80
2019-04-19T14:01:22.739Z,9.60
2019-04-19T14:03:53.175Z,8.97
2019-04-19T14:06:42.414Z,9.97
2019-04-19T14:12:00.822Z,9.27
2019-04-19T14:14:50.821Z,9.67
2019-04-19T14:17:27.466Z,9.07
2019-04-19T14:20:27.642Z,9.60
2019-04-19T14:22:45.684Z,13.70
2019-04-19T14:25:55.210Z,9.73
2019-04-19T14:28:25.315Z,9.13
2019-04-19T14:31:14.727Z,9.57
2019-04-19T14:33:45.136Z,12.90
2019-04-19T14:36:34.542Z,11.00
2019-04-19T14:42:27.893Z,11.70
2019-04-19T14:45:56.133Z,8.00
2019-04-19T14:48:39.931Z,8.60
2019-04-19T14:51:21.833Z,7.87
2019-04-19T14:53:49.710Z,8.33
2019-04-19T14:56:25.982Z,7.80
2019-04-19T14:59:01.828Z,9.13
2019-04-19T15:07:07.706Z,8.23
2019-04-19T15:09:57.505Z,10.70
2019-04-19T15:12:26.904Z,7.57
2019-04-19T15:14:57.583Z,9.60
2019-04-19T15:17:33.115Z,9.40
2019-04-19T15:23:29.745Z,6.77
2019-04-19T15:26:00.598Z,8.20
2019-04-19T15:28:37.138Z,7.03
2019-04-19T15:31:12.809Z,11.10
2019-04-19T15:33:42.650Z,9.73
2019-04-19T15:36:33.438Z,8.97
2019-04-19T15:41:50.562Z,8.50
2019-04-19T15:44:40.491Z,10.87
2019-04-19T15:47:30.737Z,8.37
2019-04-19T15:53:29.860Z,10.87
2019-04-19T15:56:06.295Z,9.10
2019-04-19T15:58:36.401Z,16.17
2019-04-19T16:01:46.110Z,11.80
2019-04-19T16:04:41.823Z,9.03
2019-04-19T16:07:37.790Z,7.60
2019-04-19T16:10:32.891Z,8.73
2019-04-19T16:15:42.634Z,7.60
2019-04-19T16:18:12.041Z,12.13
2019-04-19T16:20:43.995Z,11.67
2019-04-19T16:23:32.199Z,14.20
2019-04-19T16:26:21.644Z,11.93
2019-04-19T16:28:51.632Z,8.53
2019-04-19T16:31:42.329Z,9.13
2019-04-19T16:34:18.321Z,7.90
2019-04-19T16:36:58.380Z,8.47
2019-04-19T16:39:35.504Z,7.83
2019-04-19T16:42:10.999Z,8.53
2019-04-19T16:44:52.005Z,10.10
2019-04-19T16:47:29.137Z,7.80
2019-04-19T16:50:08.488Z,8.70
2019-04-19T16:52:38.698Z,9.40
2019-04-19T16:55:27.944Z,8.60
2019-04-19T16:57:58.732Z,7.20
2019-04-19T17:00:47.474Z,8.17
2019-04-19T17:03:17.489Z,9.17
2019-04-19T17:06:07.178Z,8.40
2019-04-19T17:08:36.651Z,7.90
2019-04-19T17:11:05.987Z,7.13
2019-04-19T17:13:42.707Z,9.70
2019-04-19T17:22:03.453Z,8.70
2019-04-19T17:24:45.158Z,8.33
2019-04-19T17:27:35.285Z,10.30
2019-04-19T17:30:32.443Z,8.33
2019-04-19T17:33:08.266Z,10.50
2019-04-19T17:35:44.161Z,7.47
2019-04-19T17:38:24.984Z,13.27
2019-04-19T17:40:50.548Z,7.93
2019-04-19T17:43:45.914Z,8.30
2019-04-19T17:46:15.282Z,15.33
2019-04-19T17:48:44.609Z,10.10
2019-04-19T17:51:13.954Z,7.47
2019-04-19T17:53:46.975Z,12.00
2019-04-19T17:56:37.370Z,7.47
2019-04-19T17:59:48.045Z,13.20
2019-04-19T18:02:37.148Z,9.03
2019-04-19T18:05:13.948Z,7.80
2019-04-19T18:07:52.020Z,13.03
2019-04-19T18:10:34.907Z,17.90
2019-04-19T18:13:03.474Z,14.97
2019-04-19T18:15:34.883Z,8.37
2019-04-19T18:18:23.032Z,10.53
2019-04-19T18:20:55.705Z,15.10
2019-04-19T18:23:49.407Z,10.33
2019-04-19T18:26:29.668Z,10.30
2019-04-19T18:29:01.029Z,9.43
2019-04-19T18:31:42.069Z,14.60
2019-04-19T18:37:53.366Z,8.77
2019-04-19T18:40:29.099Z,19.53
2019-04-19T18:43:11.265Z,9.70
2019-04-19T18:45:49.903Z,11.30
2019-04-19T18:48:25.080Z,12.37
2019-04-19T18:54:38.001Z,10.73
2019-04-19T18:57:09.662Z,9.80
2019-04-19T18:59:51.082Z,9.40
2019-04-19T19:02:23.848Z,10.43
2019-04-19T19:05:02.087Z,12.27
2019-04-19T19:07:34.774Z,11.73
2019-04-19T19:13:12.225Z,12.93
2019-04-19T19:15:55.930Z,9.07
2019-04-19T19:18:35.054Z,10.70
2019-04-19T19:21:08.392Z,8.93
2019-04-19T19:23:57.330Z,14.67
2019-04-19T19:26:46.825Z,13.47
2019-04-19T19:29:02.364Z,8.00
2019-04-19T19:34:43.903Z,9.03
2019-04-19T19:37:19.246Z,9.47
2019-04-19T19:40:09.615Z,12.10
2019-04-19T19:45:50.416Z,13.23
2019-04-19T19:51:20.388Z,9.17
2019-04-19T19:54:22.231Z,7.83
2019-04-19T19:59:15.855Z,14.83
2019-04-19T20:01:58.646Z,7.77
2019-04-19T20:04:27.078Z,16.80
2019-04-19T20:07:11.162Z,8.97
2019-04-19T20:09:51.348Z,8.43
2019-04-19T20:12:29.349Z,12.13
2019-04-19T20:18:03.014Z,11.33
2019-04-19T20:20:44.239Z,8.53
2019-04-19T20:23:24.227Z,8.07
2019-04-19T20:26:10.862Z,9.83
2019-04-19T20:28:36.110Z,16.13
2019-04-19T20:31:08.968Z,15.10
2019-04-19T20:33:50.147Z,8.80
2019-04-19T20:36:21.120Z,12.83
2019-04-19T20:39:01.318Z,10.50
2019-04-19T20:41:37.386Z,10.90
2019-04-19T20:44:27.615Z,9.90
2019-04-19T20:46:46.324Z,8.50
2019-04-19T20:49:28.681Z,8.43
2019-04-19T20:52:33.689Z,8.80
2019-04-19T20:55:16.596Z,10.63
2019-04-19T21:00:42.258Z,7.87
2019-04-19T21:03:15.689Z,12.13
2019-04-19T21:06:02.086Z,10.27
2019-04-19T21:08:44.265Z,10.17
2019-04-19T21:11:15.112Z,10.77
2019-04-19T21:13:56.731Z,14.57
2019-04-19T21:16:29.069Z,10.10
2019-04-19T21:19:07.449Z,17.97
2019-04-19T21:21:45.558Z,18.23
2019-04-19T21:24:22.638Z,16.20
2019-04-19T21:27:05.866Z,20.23
2019-04-19T21:29:36.729Z,23.60
2019-04-19T21:32:17.636Z,21.47
2019-04-19T21:34:48.196Z,20.70
2019-04-19T21:37:31.595Z,21.77
2019-04-19T21:40:16.583Z,20.10
2019-04-19T21:42:49.331Z,24.57
2019-04-19T21:45:41.152Z,18.73
2019-04-19T21:48:18.055Z,16.93
2019-04-19T21:51:18.558Z,19.73
2019-04-19T21:53:51.708Z,17.77
2019-04-19T21:56:49.862Z,25.60
2019-04-19T21:59:38.692Z,23.13
2019-04-19T22:02:25.644Z,23.50
2019-04-19T22:05:09.591Z,19.43
2019-04-19T22:07:47.780Z,21.50
2019-04-19T22:10:24.807Z,24.93
2019-04-19T22:13:02.184Z,21.20
2019-04-19T22:15:46.127Z,32.93
2019-04-19T22:18:15.243Z,24.33
2019-04-19T22:20:56.135Z,18.73
2019-04-19T22:23:28.749Z,21.37
2019-04-19T22:26:30.529Z,20.77
2019-04-19T22:29:01.646Z,22.73
2019-04-19T22:31:38.032Z,24.57
2019-04-19T22:34:28.444Z,18.73
2019-04-19T22:37:01.310Z,18.60
2019-04-19T22:39:50.693Z,21.50
2019-04-19T22:42:47.511Z,19.60
2019-04-19T22:45:23.569Z,18.00
2019-04-19T22:47:53.212Z,20.40
2019-04-19T22:50:47.087Z,19.83
2019-04-19T22:53:24.046Z,19.10
2019-04-19T22:56:34.333Z,20.43
2019-04-19T22:59:11.668Z,14.73
2019-04-19T23:04:36.993Z,20.00
2019-04-19T23:07:09.874Z,23.53
2019-04-19T23:09:56.836Z,33.03
2019-04-19T23:12:39.663Z,18.37
2019-04-19T23:15:15.688Z,21.77
2019-04-19T23:18:14.390Z,20.90
2019-04-19T23:20:45.518Z,22.00
2019-04-19T23:23:21.827Z,18.10
2019-04-19T23:26:19.661Z,18.40
2019-04-19T23:28:44.227Z,18.73
2019-04-19T23:31:19.387Z,16.43
2019-04-19T23:34:01.110Z,18.10
2019-04-19T23:36:31.231Z,23.90
2019-04-19T23:39:11.027Z,19.47
2019-04-19T23:41:44.510Z,21.17
2019-04-19T23:44:25.339Z,23.70
2019-04-19T23:47:12.656Z,30.30
2019-04-19T23:49:47.322Z,24.90
2019-04-19T23:52:19.204Z,23.53
2019-04-19T23:54:56.567Z,29.00
2019-04-19T23:57:39.508Z,23.40
